Time;durP1;ratioP1;P1;durP2;ratioP2;P2;SDS_P1;SDS_P2;PMS_P1;PMS_P2;Temp;Humidity;BMP_temperature;BMP_pressure;BME280_temperature;BME280_humidity;BME280_pressure;Samples;Min_cycle;Max_cycle;Signal;HPM_P1;HPM_P2
2021/03/13 00:18:36;;;;;;;17.30;2.80;;;;;;;2.17;83.27;98759.97;6222054;22;20006;-85
2021/03/13 00:34:13;;;;;;;26.27;4.87;;;;;;;2.48;83.59;98814.44;6176741;22;20025;-83
2021/03/13 00:57:21;;;;;;;24.83;3.58;;;;;;;2.07;84.36;98752.38;6219704;22;20032;-84
2021/03/13 01:10:14;;;;;;;33.47;4.43;;;;;;;2.32;84.26;98787.22;6182813;22;20013;-84
2021/03/13 01:25:36;;;;;;;36.97;5.55;;;;;;;2.13;85.21;98750.78;6189741;22;20011;-84
2021/03/13 01:43:33;;;;;;;36.17;5.57;;;;;;;2.19;85.17;98734.09;6217736;22;20005;-84
2021/03/13 01:53:47;;;;;;;29.00;4.88;;;;;;;3.09;85.58;98875.66;6195473;22;20017;-85
2021/03/13 02:06:33;;;;;;;29.50;5.10;;;;;;;2.57;85.50;98781.41;6183609;22;20024;-84
2021/03/13 02:09:14;;;;;;;29.63;5.60;;;;;;;2.26;85.14;98728.81;6243810;22;20061;-84
2021/03/13 02:11:51;;;;;;;32.83;5.50;;;;;;;2.28;85.20;98730.22;6243003;22;20000;-84
2021/03/13 02:14:35;;;;;;;28.65;5.20;;;;;;;3.09;85.74;98870.34;6242728;22;20008;-85
2021/03/13 02:17:12;;;;;;;32.30;5.70;;;;;;;2.29;85.30;98745.16;6243211;22;20000;-84
2021/03/13 02:19:43;;;;;;;30.58;4.68;;;;;;;3.04;85.73;98860.28;6243216;22;19989;-83
2021/03/13 02:27:26;;;;;;;28.90;5.00;;;;;;;2.73;85.50;98812.13;6177613;22;20029;-84
2021/03/13 02:35:28;;;;;;;28.65;4.88;;;;;;;2.44;85.88;98781.34;6237811;22;19997;-85
2021/03/13 02:38:00;;;;;;;29.98;4.65;;;;;;;2.09;85.48;98725.66;6209056;22;20052;-82
2021/03/13 02:40:28;;;;;;;29.75;4.68;;;;;;;2.02;85.37;98722.97;6237455;22;20013;-85
2021/03/13 03:06:11;;;;;;;24.13;4.68;;;;;;;2.03;85.58;98735.22;6201383;22;20043;-84
2021/03/13 03:08:38;;;;;;;29.88;5.05;;;;;;;2.03;85.38;98731.75;6243323;22;19993;-84
2021/03/13 03:11:05;;;;;;;26.10;4.93;;;;;;;2.08;85.61;98742.56;6242502;22;20004;-83
2021/03/13 03:36:47;;;;;;;23.83;6.13;;;;;;;1.84;85.84;98735.91;6171700;22;20013;-84
2021/03/13 03:47:00;;;;;;;29.90;6.78;;;;;;;1.94;86.03;98778.00;6232072;22;20120;-85
2021/03/13 03:52:01;;;;;;;27.52;6.72;;;;;;;1.78;85.80;98757.88;6201466;22;20059;-83
2021/03/13 04:09:54;;;;;;;35.88;7.57;;;;;;;1.97;86.56;98777.59;6190743;22;20009;-81
2021/03/13 04:12:20;;;;;;;29.98;8.23;;;;;;;2.05;85.96;98793.34;6242014;22;20000;-87
2021/03/13 05:50:27;;;;;;;26.85;5.25;;;;;;;2.24;86.13;98771.44;6217767;22;20008;-79
2021/03/13 06:03:14;;;;;;;25.98;5.65;;;;;;;2.10;85.63;98744.03;6177676;22;20070;-84
2021/03/13 06:22:07;;;;;;;23.83;5.50;;;;;;;2.34;85.68;98755.97;6229589;22;20012;-84
2021/03/13 07:37:27;;;;;;;27.20;4.55;;;;;;;3.22;83.30;98742.81;6202698;22;20120;-83
2021/03/13 08:21:21;;;;;;;26.55;6.05;;;;;;;4.75;81.25;98843.00;6166569;22;20279;-83
2021/03/13 08:39:25;;;;;;;22.15;4.57;;;;;;;4.21;80.78;98702.03;6227148;22;20765;-86
2021/03/13 09:02:39;;;;;;;21.08;3.90;;;;;;;4.70;79.02;98719.25;6234714;22;20011;-84
2021/03/13 09:10:15;;;;;;;17.67;3.53;;;;;;;4.81;78.80;98720.41;6187024;22;20029;-85
2021/03/13 09:25:35;;;;;;;13.57;2.22;;;;;;;5.83;78.15;98816.41;6214065;23;20068;-85
2021/03/13 09:33:20;;;;;;;15.48;2.90;;;;;;;5.41;77.21;98755.53;6226555;22;20001;-84
2021/03/13 09:46:25;;;;;;;14.13;2.83;;;;;;;5.94;76.58;98789.03;6163568;23;21131;31
2021/03/13 09:51:26;;;;;;;13.80;2.45;;;;;;;4.91;76.58;98635.50;6218039;22;20008;-85
2021/03/13 09:56:30;;;;;;;20.20;3.78;;;;;;;4.90;76.42;98657.00;6178659;23;20001;-85
2021/03/13 10:09:17;;;;;;;22.33;4.55;;;;;;;4.66;76.48;98626.63;6234249;22;20008;-86
2021/03/13 10:11:43;;;;;;;28.25;4.57;;;;;;;4.78;76.69;98672.06;6239023;22;20008;-83
2021/03/13 10:16:45;;;;;;;23.80;4.25;;;;;;;4.19;77.32;98642.03;6186839;22;20016;-84
2021/03/13 10:19:40;;;;;;;18.77;4.15;;;;;;;5.10;77.38;98791.00;6243814;22;19997;-83
2021/03/13 10:22:07;;;;;;;27.98;4.45;;;;;;;5.02;78.54;98796.56;6242546;22;20000;-83
2021/03/13 10:24:50;;;;;;;26.27;3.80;;;;;;;4.32;77.84;98679.25;6243220;22;20011;-83
2021/03/13 11:00:54;;;;;;;23.38;3.45;;;;;;;6.48;74.84;98760.75;6198297;22;20004;-83
2021/03/13 11:03:21;;;;;;;24.30;4.25;;;;;;;5.36;74.85;98598.03;6242949;22;20016;-83
2021/03/13 11:08:25;;;;;;;22.45;4.15;;;;;;;5.17;74.40;98599.00;6215024;22;20050;-81
2021/03/13 11:10:52;;;;;;;22.73;3.95;;;;;;;5.59;74.20;98664.06;6242813;22;19997;-84
2021/03/13 11:13:18;;;;;;;29.92;4.43;;;;;;;5.28;75.00;98640.13;6243551;22;19995;-83
2021/03/13 11:15:44;;;;;;;25.65;4.63;;;;;;;5.18;75.18;98633.44;6243007;22;20016;-83
2021/03/13 11:18:10;;;;;;;31.45;4.55;;;;;;;6.11;75.00;98776.75;6241174;22;20013;-83
2021/03/13 11:20:37;;;;;;;24.38;3.90;;;;;;;5.11;74.61;98602.53;6206629;22;20027;-83
2021/03/13 11:23:06;;;;;;;28.88;5.20;;;;;;;5.42;74.65;98652.31;6211895;23;20013;-84
2021/03/13 11:25:32;;;;;;;23.42;4.47;;;;;;;5.27;74.76;98622.53;6211577;23;20008;-84
2021/03/13 11:30:34;;;;;;;25.70;4.35;;;;;;;5.59;75.25;98685.41;6231382;22;20024;-85
2021/03/13 11:35:35;;;;;;;26.90;4.38;;;;;;;4.93;74.53;98595.28;6228064;22;20039;-84
2021/03/13 11:48:21;;;;;;;19.50;3.55;;;;;;;5.29;73.44;98711.91;6196610;22;20020;-85
2021/03/13 11:50:48;;;;;;;30.52;4.13;;;;;;;4.79;73.41;98639.88;6243558;22;20295;-84
2021/03/13 11:55:41;;;;;;;19.63;3.25;;;;;;;4.74;73.14;98593.59;6218629;22;20024;-83
2021/03/13 11:58:07;;;;;;;20.95;3.67;;;;;;;5.14;72.96;98637.59;6203896;22;20680;-83
2021/03/13 12:05:43;;;;;;;28.45;3.83;;;;;;;4.75;73.54;98597.91;6194138;22;20014;-85
2021/03/13 12:08:10;;;;;;;23.67;3.80;;;;;;;4.99;73.50;98633.59;6240305;22;20005;-84
2021/03/13 12:10:36;;;;;;;15.32;3.25;;;;;;;4.49;73.10;98567.72;6244135;22;20024;-84
2021/03/13 13:15:38;;;;;;;14.85;3.70;;;;;;;6.01;70.66;98688.31;6137928;22;868448;31
2021/03/13 13:28:25;;;;;;;22.88;5.25;;;;;;;5.49;69.74;98517.03;6182924;22;20013;-85
2021/03/13 13:36:02;;;;;;;18.65;4.07;;;;;;;5.34;69.51;98474.75;6170342;22;20011;-84
2021/03/13 13:51:27;;;;;;;17.75;3.75;;;;;;;5.35;69.89;98511.03;6179736;22;20084;-86
2021/03/13 13:56:27;;;;;;;18.02;3.60;;;;;;;5.25;69.95;98491.25;6169405;22;20024;-84
2021/03/13 14:11:41;;;;;;;20.17;4.35;;;;;;;5.81;70.07;98557.72;6187405;23;20080;-77
2021/03/13 14:14:07;;;;;;;21.25;4.03;;;;;;;6.10;70.36;98612.25;6185463;23;20016;-77
2021/03/13 14:16:32;;;;;;;21.83;3.53;;;;;;;6.17;69.86;98617.50;6184382;23;20005;-76
2021/03/13 14:18:58;;;;;;;13.35;3.55;;;;;;;6.13;69.89;98607.50;6184961;23;20015;-77
2021/03/13 14:21:23;;;;;;;16.92;3.35;;;;;;;6.20;69.55;98610.91;6160015;23;20310;-77
2021/03/13 14:23:49;;;;;;;18.98;3.50;;;;;;;6.01;69.12;98604.75;6160266;23;20011;-77
2021/03/13 14:26:14;;;;;;;13.02;3.13;;;;;;;6.00;68.14;98600.47;6185052;23;20087;-77
2021/03/13 14:28:41;;;;;;;15.32;2.80;;;;;;;5.86;67.93;98592.59;6160093;23;20065;-77
2021/03/13 14:31:06;;;;;;;14.43;2.35;;;;;;;5.91;67.12;98602.56;6160059;23;20374;-76
2021/03/13 14:33:32;;;;;;;11.82;2.42;;;;;;;5.93;67.38;98589.03;6185179;23;20013;-77
2021/03/13 14:35:59;;;;;;;10.25;2.33;;;;;;;5.85;66.86;98576.78;6185054;23;20373;-76
2021/03/13 14:38:25;;;;;;;16.77;2.85;;;;;;;6.00;66.52;98598.59;6184224;23;20410;-77
2021/03/13 14:40:51;;;;;;;9.63;2.45;;;;;;;5.92;66.24;98582.84;6160358;23;20013;-76
2021/03/13 14:43:18;;;;;;;16.75;2.80;;;;;;;6.08;66.57;98590.28;6186064;23;20013;-76
2021/03/13 14:45:44;;;;;;;11.93;3.05;;;;;;;6.09;66.52;98588.41;6185215;23;20433;-76
2021/03/13 14:48:27;;;;;;;14.75;3.05;;;;;;;5.95;66.05;98585.09;6160585;23;20009;-77
2021/03/13 14:50:53;;;;;;;10.23;2.55;;;;;;;5.95;66.07;98574.41;6184552;23;20009;-77
2021/03/13 14:53:18;;;;;;;12.23;2.40;;;;;;;5.88;65.28;98568.31;6160282;23;20374;-77
2021/03/13 14:55:45;;;;;;;14.27;2.47;;;;;;;5.92;65.84;98585.50;6186377;23;20040;-76
2021/03/13 14:58:11;;;;;;;12.00;2.55;;;;;;;5.26;65.57;98504.34;6185028;23;20084;-76
2021/03/13 15:00:36;;;;;;;15.38;3.10;;;;;;;5.72;65.42;98566.25;6160376;23;20037;-76
2021/03/13 15:03:02;;;;;;;9.52;2.35;;;;;;;5.82;65.94;98561.22;6184598;23;20084;-76
2021/03/13 15:05:27;;;;;;;19.35;3.15;;;;;;;5.45;65.46;98517.72;6134421;23;20015;-76
2021/03/13 15:07:52;;;;;;;14.95;2.58;;;;;;;5.69;65.96;98562.16;6184665;23;20378;-76
2021/03/13 15:10:21;;;;;;;15.45;3.22;;;;;;;5.69;65.87;98548.00;6159801;23;20033;-76
2021/03/13 15:12:46;;;;;;;10.45;3.38;;;;;;;4.94;65.96;98458.38;6184900;23;20012;-76
2021/03/13 15:15:14;;;;;;;16.13;2.60;;;;;;;5.51;66.58;98538.97;6184892;23;20009;-77
2021/03/13 15:17:40;;;;;;;13.75;2.47;;;;;;;5.59;65.74;98544.00;6184691;23;20079;-77
2021/03/13 15:20:12;;;;;;;19.20;3.22;;;;;;;5.54;65.64;98551.88;6186915;23;20012;-77
2021/03/13 15:22:37;;;;;;;13.05;2.65;;;;;;;5.39;66.37;98514.06;6186153;23;20005;-78
2021/03/13 15:25:05;;;;;;;11.90;2.42;;;;;;;5.27;66.59;98510.53;6159826;23;20099;-77
2021/03/13 15:27:30;;;;;;;9.98;1.95;;;;;;;5.27;66.25;98505.19;6183631;23;20351;-77
2021/03/13 15:29:56;;;;;;;8.38;2.15;;;;;;;5.22;66.50;98510.38;6184469;23;20040;-77
2021/03/13 15:32:21;;;;;;;10.98;2.65;;;;;;;5.38;66.86;98531.13;6183630;23;20059;-79
2021/03/13 15:34:47;;;;;;;12.00;3.08;;;;;;;5.32;66.53;98530.16;6185566;23;20028;-80
2021/03/13 15:37:12;;;;;;;10.38;2.75;;;;;;;5.38;67.22;98531.94;6159855;23;20480;-79
2021/03/13 15:39:40;;;;;;;12.55;2.50;;;;;;;5.33;66.95;98521.13;6133831;23;20017;-78
2021/03/13 15:42:06;;;;;;;7.20;1.70;;;;;;;5.20;66.87;98515.94;6159249;23;19997;-78
2021/03/13 15:44:31;;;;;;;12.35;3.05;;;;;;;5.17;67.47;98505.72;6185118;23;20490;-79
2021/03/13 15:46:57;;;;;;;10.63;2.20;;;;;;;5.22;66.31;98513.03;6185393;23;20040;-78
2021/03/13 15:49:23;;;;;;;10.38;2.00;;;;;;;5.06;67.09;98485.91;6186761;23;20009;-77
2021/03/13 15:51:50;;;;;;;7.93;1.85;;;;;;;5.09;67.23;98488.13;6186758;23;20055;-78
2021/03/13 15:54:15;;;;;;;8.52;1.83;;;;;;;5.13;66.73;98504.50;6160677;23;20407;-78
2021/03/13 15:56:42;;;;;;;8.95;1.90;;;;;;;5.09;67.82;98506.78;6188798;23;20013;-78
2021/03/13 15:59:08;;;;;;;10.60;2.13;;;;;;;5.04;67.72;98495.16;6166084;23;20017;-77
2021/03/13 16:01:52;;;;;;;9.45;1.90;;;;;;;4.93;67.38;98497.53;6185300;23;20087;-78
2021/03/13 16:04:17;;;;;;;12.88;1.95;;;;;;;4.79;68.23;98474.69;6184213;23;20033;-78
2021/03/13 16:06:43;;;;;;;8.45;1.83;;;;;;;4.26;67.53;98397.09;6184527;23;20315;-79
2021/03/13 16:09:15;;;;;;;9.15;2.25;;;;;;;4.77;68.32;98475.94;6185986;23;20021;-78
2021/03/13 16:11:42;;;;;;;7.95;1.60;;;;;;;4.74;68.13;98471.88;6161170;23;20013;-77
2021/03/13 16:14:07;;;;;;;7.30;1.95;;;;;;;4.79;68.10;98487.19;6159805;23;20384;-79
2021/03/13 16:16:34;;;;;;;10.45;2.85;;;;;;;4.76;68.94;98492.94;6135156;23;20013;-79
2021/03/13 16:19:00;;;;;;;12.25;2.00;;;;;;;4.77;69.33;98494.56;6184155;23;20079;-79
2021/03/13 16:21:25;;;;;;;10.80;1.58;;;;;;;4.57;68.88;98474.28;6183588;23;20005;-79
2021/03/13 16:23:52;;;;;;;10.32;1.95;;;;;;;4.64;68.85;98496.34;6184319;23;20368;-79
2021/03/13 16:26:19;;;;;;;6.75;1.60;;;;;;;4.51;69.39;98477.81;6159218;23;20009;-78
2021/03/13 16:28:47;;;;;;;7.22;2.33;;;;;;;4.43;69.15;98462.88;6159886;23;20005;-77
2021/03/13 16:31:12;;;;;;;12.68;2.60;;;;;;;4.64;70.00;98498.19;6184516;23;20013;-78
2021/03/13 16:33:39;;;;;;;11.65;2.92;;;;;;;4.56;70.33;98501.09;6160356;23;20407;-78
2021/03/13 16:36:08;;;;;;;10.07;2.10;;;;;;;4.54;69.65;98497.88;6161462;23;20132;-76
2021/03/13 16:38:34;;;;;;;6.78;1.70;;;;;;;4.52;70.20;98497.25;6185586;23;20009;-75
2021/03/13 16:41:00;;;;;;;8.02;1.92;;;;;;;4.42;70.07;98473.75;6185559;23;20013;-77
2021/03/13 16:43:26;;;;;;;9.05;1.88;;;;;;;4.35;70.53;98476.47;6188080;23;20004;-78
2021/03/13 16:45:53;;;;;;;13.05;2.05;;;;;;;4.33;70.68;98477.72;6185572;23;20016;-76
2021/03/13 16:48:19;;;;;;;15.80;2.55;;;;;;;4.27;70.73;98490.03;6187504;23;20019;-77
2021/03/13 16:50:45;;;;;;;10.45;2.38;;;;;;;4.11;71.46;98462.13;6160633;23;20013;-76
2021/03/13 16:53:15;;;;;;;14.00;3.30;;;;;;;3.94;72.00;98439.69;6186070;23;20016;-76
2021/03/13 16:55:43;;;;;;;10.38;1.88;;;;;;;4.17;71.42;98479.88;6161977;23;20009;-76
2021/03/13 16:58:10;;;;;;;9.95;1.80;;;;;;;4.12;71.69;98477.03;6185627;23;20009;-76
2021/03/13 17:00:35;;;;;;;7.35;1.73;;;;;;;4.22;71.50;98490.69;6187028;23;20005;-76
2021/03/13 17:03:01;;;;;;;6.78;1.88;;;;;;;4.13;71.65;98491.97;6159785;23;20009;-76
2021/03/13 17:05:27;;;;;;;10.07;1.83;;;;;;;4.02;72.30;98482.03;6185846;23;20044;-77
2021/03/13 17:07:52;;;;;;;8.73;1.98;;;;;;;3.66;71.85;98432.09;6186387;23;20025;-77
2021/03/13 17:10:18;;;;;;;12.27;2.15;;;;;;;4.00;71.92;98489.38;6160325;23;20025;-76
2021/03/13 17:12:43;;;;;;;10.73;2.03;;;;;;;3.88;72.34;98481.28;6185771;23;20021;-76
2021/03/13 17:15:10;;;;;;;14.07;2.63;;;;;;;3.93;72.95;98489.44;6161016;23;20009;-76
2021/03/13 17:17:35;;;;;;;10.98;2.30;;;;;;;3.66;72.71;98448.84;6185638;23;20419;-76
2021/03/13 17:20:01;;;;;;;9.27;2.42;;;;;;;3.69;72.96;98459.06;6185792;23;20020;-78
2021/03/13 17:22:27;;;;;;;8.98;2.30;;;;;;;3.76;73.18;98475.81;6161049;23;20026;-74
2021/03/13 17:24:52;;;;;;;8.98;1.95;;;;;;;3.72;72.95;98477.25;6186136;23;20447;-75
2021/03/13 17:27:18;;;;;;;11.50;2.33;;;;;;;3.81;73.29;98490.31;6185183;23;20009;-74
2021/03/13 17:29:43;;;;;;;10.32;2.35;;;;;;;3.80;73.12;98488.69;6160352;23;20384;-74
2021/03/13 17:32:12;;;;;;;12.80;2.40;;;;;;;3.72;73.70;98497.72;6186814;23;20067;-74
2021/03/13 17:34:38;;;;;;;10.95;2.22;;;;;;;3.58;73.70;98473.03;6186161;23;20008;-74
2021/03/13 17:37:03;;;;;;;10.82;2.20;;;;;;;3.67;73.79;98487.72;6185221;23;20021;-74
2021/03/13 17:39:29;;;;;;;9.68;2.30;;;;;;;3.62;73.96;98492.84;6186430;23;20009;-74
2021/03/13 17:42:00;;;;;;;10.32;2.28;;;;;;;3.55;74.07;98491.25;6184906;23;20005;-74
2021/03/13 17:44:26;;;;;;;8.60;1.90;;;;;;;3.56;73.67;98485.72;6184745;23;20009;-75
2021/03/13 17:46:51;;;;;;;13.98;2.33;;;;;;;3.58;73.27;98494.31;6159519;23;20027;-75
2021/03/13 17:49:17;;;;;;;9.90;2.30;;;;;;;3.58;73.43;98498.81;6185542;23;20020;-74
2021/03/13 17:51:42;;;;;;;13.18;2.10;;;;;;;3.40;74.03;98475.56;6186238;23;20311;-74
2021/03/13 17:54:08;;;;;;;8.70;2.25;;;;;;;3.42;73.78;98490.28;6186626;23;20009;-74
2021/03/13 17:56:33;;;;;;;8.50;2.20;;;;;;;3.46;74.31;98504.78;6186908;23;20066;-74
2021/03/13 17:58:59;;;;;;;8.35;2.17;;;;;;;3.49;73.67;98507.00;6160869;23;20405;-75
2021/03/13 18:01:25;;;;;;;12.75;2.63;;;;;;;3.44;74.09;98516.63;6135352;23;20013;-75
2021/03/13 18:03:50;;;;;;;8.05;2.13;;;;;;;3.43;74.50;98515.81;6185874;23;20020;-74
2021/03/13 18:06:16;;;;;;;13.82;2.38;;;;;;;3.40;74.54;98510.91;6185996;23;20332;-74
2021/03/13 18:08:41;;;;;;;16.67;3.42;;;;;;;3.34;74.64;98505.63;6184579;23;20039;-75
2021/03/13 18:11:07;;;;;;;6.63;1.90;;;;;;;3.36;74.41;98515.03;6185040;23;20017;-75
2021/03/13 18:13:32;;;;;;;9.85;1.90;;;;;;;3.39;73.86;98513.81;6186408;23;20013;-74
2021/03/13 18:15:58;;;;;;;8.48;2.30;;;;;;;3.35;74.65;98512.59;6185260;23;20399;-74
2021/03/13 18:18:23;;;;;;;9.50;2.33;;;;;;;3.36;74.49;98514.22;6160736;23;20017;-75
2021/03/13 18:20:49;;;;;;;9.75;2.22;;;;;;;3.33;74.63;98517.28;6136021;23;20114;-75
2021/03/13 18:23:14;;;;;;;7.20;2.00;;;;;;;3.21;74.48;98495.84;6185722;23;20016;-75
2021/03/13 18:25:41;;;;;;;8.45;2.00;;;;;;;3.28;74.23;98510.75;6160629;23;20100;-75
2021/03/13 18:28:08;;;;;;;10.52;2.20;;;;;;;3.27;74.52;98517.09;6186862;23;20036;-74
2021/03/13 18:30:33;;;;;;;8.07;1.98;;;;;;;3.27;74.73;98517.09;6186344;23;20509;-75
2021/03/13 18:32:59;;;;;;;7.65;2.10;;;;;;;3.12;75.05;98497.13;6185419;23;20005;-75
2021/03/13 18:35:26;;;;;;;8.30;2.00;;;;;;;3.24;74.83;98516.69;6186490;23;20015;-75
2021/03/13 18:37:52;;;;;;;7.70;2.20;;;;;;;3.17;74.76;98505.25;6184924;23;20426;-75
2021/03/13 18:40:17;;;;;;;9.75;2.30;;;;;;;3.26;74.97;98523.44;6185136;23;20052;-75
2021/03/13 18:42:43;;;;;;;9.38;2.33;;;;;;;3.28;74.64;98524.06;6186433;23;20009;-76
2021/03/13 18:45:09;;;;;;;8.20;2.25;;;;;;;3.26;74.65;98531.41;6185716;23;20454;-75
2021/03/13 18:47:34;;;;;;;11.63;2.50;;;;;;;3.25;74.26;98528.97;6185312;23;20373;-75
2021/03/13 18:50:00;;;;;;;9.60;2.38;;;;;;;3.03;74.85;98488.53;6186324;23;20012;-76
2021/03/13 18:52:28;;;;;;;12.13;2.30;;;;;;;3.17;74.92;98522.00;6135529;23;20023;-74
2021/03/13 18:54:54;;;;;;;9.90;3.15;;;;;;;3.23;74.55;98523.84;6184995;23;20378;-77
2021/03/13 18:57:21;;;;;;;11.50;2.20;;;;;;;3.11;74.81;98522.03;6185985;23;20017;-76
2021/03/13 18:59:47;;;;;;;8.70;2.13;;;;;;;3.19;74.89;98525.28;6186254;23;20009;-76
2021/03/13 19:02:13;;;;;;;11.25;2.80;;;;;;;3.19;75.01;98530.59;6186256;23;20012;-75
2021/03/13 19:04:38;;;;;;;8.90;2.33;;;;;;;3.17;75.23;98529.19;6185961;23;20009;-75
2021/03/13 19:07:04;;;;;;;10.48;2.10;;;;;;;3.18;75.16;98530.81;6183920;23;20091;-75
2021/03/13 19:09:29;;;;;;;11.85;2.30;;;;;;;3.16;75.57;98536.34;6186318;23;20369;-75
2021/03/13 19:11:55;;;;;;;8.73;2.50;;;;;;;3.11;75.23;98522.03;6186101;23;20407;-75
2021/03/13 19:14:20;;;;;;;8.38;2.40;;;;;;;3.06;75.77;98530.63;6160115;23;20017;-75
2021/03/13 19:16:46;;;;;;;11.55;2.85;;;;;;;3.09;75.78;98540.84;6184707;23;20016;-76
2021/03/13 19:19:12;;;;;;;6.15;2.53;;;;;;;3.00;76.01;98531.44;6160652;23;20110;-75
2021/03/13 19:21:38;;;;;;;8.30;2.53;;;;;;;3.03;76.31;98539.00;6184282;23;20451;-75
2021/03/13 19:24:04;;;;;;;7.40;2.28;;;;;;;3.04;75.93;98536.13;6185077;23;20009;-77
2021/03/13 19:26:30;;;;;;;10.63;3.17;;;;;;;2.89;76.14;98516.97;6184118;23;20092;-76
2021/03/13 19:28:55;;;;;;;23.95;10.27;;;;;;;2.91;76.79;98528.19;6184510;23;20013;-76
2021/03/13 19:31:21;;;;;;;12.63;8.13;;;;;;;2.96;76.84;98554.94;6184341;23;20039;-75
2021/03/13 19:33:46;;;;;;;11.07;4.47;;;;;;;2.32;76.30;98438.75;6186007;23;20009;-75
2021/03/13 19:36:12;;;;;;;8.63;3.85;;;;;;;2.99;77.17;98543.91;6185193;23;20016;-76
2021/03/13 19:38:38;;;;;;;10.15;3.45;;;;;;;2.91;76.81;98535.34;6184331;23;20020;-75
2021/03/13 19:41:04;;;;;;;12.18;4.10;;;;;;;2.93;77.71;98543.94;6159858;23;20041;-76
2021/03/13 19:43:29;;;;;;;52.78;35.42;;;;;;;2.73;77.72;98520.84;6183522;23;20036;-75
2021/03/13 19:45:55;;;;;;;9.65;3.22;;;;;;;2.85;77.80;98534.34;6159943;23;20276;-75
2021/03/13 19:48:20;;;;;;;35.67;26.80;;;;;;;2.91;78.33;98557.41;6185978;23;20063;-75
2021/03/13 19:50:46;;;;;;;19.60;9.50;;;;;;;2.88;78.31;98546.38;6184945;23;20013;-76
2021/03/13 19:53:12;;;;;;;11.32;4.07;;;;;;;2.89;78.21;98554.16;6185318;23;20001;-75
2021/03/13 19:55:37;;;;;;;98.90;69.43;;;;;;;2.91;78.79;98552.09;6186377;23;20016;-76
2021/03/13 19:58:02;;;;;;;38.75;28.20;;;;;;;2.79;78.83;98546.59;6185520;23;20009;-76
2021/03/13 20:00:28;;;;;;;12.38;5.20;;;;;;;2.64;78.88;98527.38;6160499;23;20024;-76
2021/03/13 20:02:54;;;;;;;8.45;2.65;;;;;;;2.79;79.20;98557.22;6184772;23;20032;-76
2021/03/13 20:05:20;;;;;;;9.38;3.67;;;;;;;2.67;79.29;98548.19;6159798;23;20016;-76
2021/03/13 20:07:45;;;;;;;17.20;8.45;;;;;;;2.66;79.23;98541.28;6183872;23;20009;-76
2021/03/13 20:10:11;;;;;;;17.42;10.07;;;;;;;2.74;79.62;98562.31;6187282;23;20021;-76
2021/03/13 20:12:39;;;;;;;13.27;7.72;;;;;;;2.77;79.59;98559.25;6186264;23;20017;-76
2021/03/13 20:15:07;;;;;;;9.32;3.50;;;;;;;2.65;79.86;98544.13;6188154;23;20005;-76
2021/03/13 20:17:33;;;;;;;13.45;3.60;;;;;;;2.67;80.12;98550.88;6185288;23;20013;-76
2021/03/13 20:19:59;;;;;;;10.32;3.30;;;;;;;2.64;80.34;98558.41;6186716;23;20025;-75
2021/03/13 20:22:24;;;;;;;9.75;3.28;;;;;;;2.49;80.70;98545.34;6186530;23;20012;-75
2021/03/13 20:24:50;;;;;;;10.82;3.22;;;;;;;2.60;80.65;98568.63;6187728;23;20005;-75
2021/03/13 20:27:16;;;;;;;10.55;3.30;;;;;;;2.46;81.29;98548.41;6137190;23;20078;-75
2021/03/13 20:29:41;;;;;;;10.32;3.40;;;;;;;2.43;81.25;98556.78;6187429;23;20123;-75
2021/03/13 20:32:07;;;;;;;12.30;3.60;;;;;;;2.45;81.37;98571.47;6159852;23;20069;-75
2021/03/13 20:34:33;;;;;;;11.02;3.35;;;;;;;2.26;81.88;98543.88;6188416;23;20005;-75
2021/03/13 20:37:04;;;;;;;6.47;3.10;;;;;;;2.33;82.37;98573.91;6186306;23;20292;-75
2021/03/13 20:39:29;;;;;;;9.85;3.65;;;;;;;2.28;82.54;98560.38;6186887;23;20298;-75
2021/03/13 20:41:55;;;;;;;8.32;3.90;;;;;;;2.21;82.91;98564.88;6187400;23;20032;-74
2021/03/13 20:44:20;;;;;;;7.47;3.78;;;;;;;2.21;83.09;98570.19;6186195;23;20013;-75
2021/03/13 20:46:46;;;;;;;11.80;4.20;;;;;;;2.20;82.86;98575.69;6161521;23;20382;-75
2021/03/13 20:49:11;;;;;;;9.77;4.00;;;;;;;2.13;82.65;98559.75;6161557;23;20019;-74
2021/03/13 20:51:37;;;;;;;9.20;4.18;;;;;;;2.07;83.24;98561.38;6160710;23;20020;-75
2021/03/13 20:54:03;;;;;;;9.88;4.28;;;;;;;2.16;83.28;98561.22;6185568;23;20399;-75
2021/03/13 20:56:28;;;;;;;8.80;4.22;;;;;;;2.15;83.53;98570.16;6188057;23;20028;-75
2021/03/13 20:58:53;;;;;;;10.20;4.82;;;;;;;2.12;83.66;98571.41;6160127;23;20040;-75
2021/03/13 21:01:19;;;;;;;15.95;4.93;;;;;;;2.12;83.32;98568.75;6185395;23;20009;-75
2021/03/13 21:03:45;;;;;;;10.27;4.72;;;;;;;2.08;83.98;98576.25;6186898;23;20009;-75
2021/03/13 21:06:10;;;;;;;11.25;5.03;;;;;;;2.10;83.61;98582.19;6161029;23;20403;-75
2021/03/13 21:08:36;;;;;;;8.13;5.00;;;;;;;2.06;83.97;98574.84;6161211;23;20013;-75
2021/03/13 21:11:01;;;;;;;8.35;4.60;;;;;;;2.07;83.98;98587.91;6186076;23;20522;-75
2021/03/13 21:13:27;;;;;;;5.90;3.80;;;;;;;2.06;84.39;98582.81;6187115;23;20009;-75
2021/03/13 21:15:52;;;;;;;7.95;4.70;;;;;;;1.99;84.21;98582.78;6186178;23;20016;-75
2021/03/13 21:18:18;;;;;;;8.52;4.82;;;;;;;2.07;84.01;98595.84;6187291;23;20027;-75
2021/03/13 21:20:44;;;;;;;9.05;5.13;;;;;;;2.05;84.44;98589.94;6186778;23;20013;-75
2021/03/13 21:23:10;;;;;;;10.45;5.57;;;;;;;2.05;84.32;98603.22;6185804;23;20060;-76
2021/03/13 21:25:36;;;;;;;7.35;4.47;;;;;;;2.03;84.54;98599.13;6187109;23;20005;-76
2021/03/13 21:28:01;;;;;;;9.50;5.32;;;;;;;2.02;84.57;98605.41;6186862;23;20001;-75
2021/03/13 21:30:27;;;;;;;9.60;5.07;;;;;;;1.86;84.94;98594.16;6186118;23;20005;-76
2021/03/13 21:32:53;;;;;;;9.93;5.07;;;;;;;1.90;84.74;98605.19;6161377;23;20071;-76
2021/03/13 21:35:19;;;;;;;9.15;5.47;;;;;;;1.92;85.15;98612.91;6161385;23;20020;-75
2021/03/13 21:37:44;;;;;;;9.77;5.90;;;;;;;1.77;85.00;98594.50;6186127;23;20009;-76
2021/03/13 21:40:10;;;;;;;10.65;5.10;;;;;;;1.84;85.26;98616.56;6186052;23;20027;-75
2021/03/13 21:42:35;;;;;;;9.77;5.32;;;;;;;1.78;85.45;98607.56;6187008;23;20012;-75
2021/03/13 21:45:01;;;;;;;8.60;5.28;;;;;;;1.73;85.21;98604.69;6187014;23;20020;-75
2021/03/13 21:47:26;;;;;;;10.60;4.95;;;;;;;1.77;85.64;98613.88;6186037;23;20012;-75
2021/03/13 21:49:52;;;;;;;8.40;4.85;;;;;;;1.76;85.36;98612.25;6185740;23;20051;-75
2021/03/13 21:52:17;;;;;;;9.93;4.75;;;;;;;1.75;85.46;98615.91;6186811;23;20005;-75
2021/03/13 21:54:42;;;;;;;11.40;4.97;;;;;;;1.71;85.20;98604.06;6161025;23;20447;-75
2021/03/13 21:57:08;;;;;;;8.05;4.38;;;;;;;1.73;85.65;98617.94;6160903;23;20407;-75
2021/03/13 21:59:34;;;;;;;9.82;4.43;;;;;;;1.69;85.28;98614.06;6185977;23;20151;-75
2021/03/13 22:01:59;;;;;;;5.88;4.15;;;;;;;1.59;85.69;98600.31;6185729;23;20005;-75
2021/03/13 22:04:25;;;;;;;10.40;4.40;;;;;;;1.67;85.56;98626.69;6185415;23;20064;-75
2021/03/13 22:06:51;;;;;;;5.65;3.95;;;;;;;1.68;85.74;98625.66;6160403;23;20009;-76
2021/03/13 22:09:17;;;;;;;10.75;4.25;;;;;;;1.65;85.69;98620.75;6160550;23;20017;-76
2021/03/13 22:11:43;;;;;;;8.18;4.25;;;;;;;1.61;85.75;98616.84;6186337;23;20072;-76
2021/03/13 22:14:08;;;;;;;10.30;4.13;;;;;;;1.67;85.64;98625.88;6160064;23;20027;-76
2021/03/13 22:16:34;;;;;;;8.68;3.75;;;;;;;1.59;85.58;98610.91;6186952;23;20012;-76
2021/03/13 22:19:01;;;;;;;6.95;3.47;;;;;;;1.64;85.06;98619.94;6184805;23;20009;-76
2021/03/13 22:21:27;;;;;;;5.47;4.00;;;;;;;1.69;85.46;98615.88;6185367;23;20024;-76
2021/03/13 22:23:52;;;;;;;6.35;3.55;;;;;;;1.58;85.66;98609.28;6159812;23;20013;-75
2021/03/13 22:26:18;;;;;;;5.47;3.55;;;;;;;1.62;85.55;98619.31;6185659;23;20068;-75
2021/03/13 22:28:43;;;;;;;7.07;3.45;;;;;;;1.69;85.36;98623.81;6134496;23;20292;-75
2021/03/13 22:31:09;;;;;;;5.75;3.65;;;;;;;1.58;85.74;98599.50;6186360;23;20383;-76
2021/03/13 22:33:34;;;;;;;5.78;3.33;;;;;;;1.54;85.34;98597.44;6185585;23;20076;-75
2021/03/13 22:36:00;;;;;;;7.95;3.13;;;;;;;1.70;85.43;98621.00;6185413;23;20068;-75
2021/03/13 22:38:25;;;;;;;6.60;2.92;;;;;;;1.64;85.34;98600.56;6184081;23;20024;-76
2021/03/13 22:40:51;;;;;;;8.25;3.40;;;;;;;1.70;85.79;98631.59;6160091;23;20013;-76
2021/03/13 22:43:16;;;;;;;6.97;3.20;;;;;;;1.65;86.03;98634.81;6161159;23;20009;-75
2021/03/13 22:45:42;;;;;;;6.05;3.70;;;;;;;1.71;85.63;98633.22;6186109;23;20406;-76
2021/03/13 22:48:08;;;;;;;7.18;3.42;;;;;;;1.72;85.33;98637.50;6160413;23;20088;-76
2021/03/13 22:50:34;;;;;;;6.38;2.97;;;;;;;1.67;85.42;98637.28;6185293;23;20037;-76
2021/03/13 22:52:59;;;;;;;8.73;3.00;;;;;;;1.66;85.79;98640.97;6186331;23;20005;-76
2021/03/13 22:55:25;;;;;;;5.78;3.03;;;;;;;1.59;85.34;98626.81;6186560;23;20005;-75